Latest Coastal Weather Observations for Friendly Beaches

IDT60701

Issued at 9:12 am EDT Saturday 25 November 2017 (issued every 10 minutes, with the page automatically refreshed every 10 minutes)

About coastal observations | Map of coastal stations | Coastal observations for TAS | Marine services | Other Formats
Station Details ID: 092114 Name: FRIENDLY BEACHES Lat: -42.00 Lon: 148.28 Height: 55.0 m
Data from the previous 72 hours. | See also: Recent months at Friendly Beaches
Date/Time
EDT
Temp
°C
Wind Pressure Rain since
9am
mm
Weather Cloud Vis
km
Sea
Height
m
Swell
Dir  Spd
kts
Gust
kts
hPa Trend Height
m
Period
s
Dir
25/09:00am 16.6 CALM 0 0 1016.9 - 1.8 - - - - - - -
25/08:30am 16.2 CALM 0 0 1016.8 - 1.8 - - - - - - -
25/08:00am 16.2 CALM 0 0 1016.5 - 1.8 - - - - - - -
25/07:30am 16.4 CALM 0 0 1016.2 - 1.8 - - - - - - -
25/07:00am 15.9 CALM 0 0 1015.9 - 1.8 - - - - - - -
25/06:30am 16.1 CALM 0 0 1015.9 - 1.8 - - - - - - -
25/06:00am 15.8 CALM 0 0 1015.4 - 1.8 - - - - - - -
25/05:30am 15.9 WSW 1 3 1015.3 - 1.8 - - - - - - -
25/05:00am 16.1 W 3 5 1015.4 - 1.8 - - - - - - -
25/04:30am 16.1 W 2 3 1014.9 - 1.8 - - - - - - -
25/04:00am 16.1 CALM 0 2 1014.5 - 1.8 - - - - - - -
25/03:30am 16.2 W 3 4 1014.9 - 1.8 - - - - - - -
25/03:00am 16.1 SW 2 2 1014.8 - 1.8 - - - - - - -
25/02:30am 15.8 SSW 3 4 1014.7 - 1.8 - - - - - - -
25/02:00am 15.7 S 3 4 1014.9 - 1.8 - - - - - - -
25/01:30am 15.8 SE 3 5 1015.2 - 1.8 - - - - - - -
25/01:00am 15.1 ESE 4 6 1015.2 - 1.8 - - - - - - -
25/12:30am 15.3 SSE 5 7 1015.1 - 1.8 - - - - - - -
25/12:00am 15.6 SSE 5 6 1014.9 - 1.8 - - - - - - -
 
Date/Time
EDT
Temp
°C
Wind Pressure Rain since
9am
mm
Weather Cloud Vis
km
Sea
Height
m
Swell
Dir  Spd
kts
Gust
kts
hPa Trend Height
m
Period
s
Dir
24/11:30pm 15.4 S 5 6 1014.9 - 1.8 - - - - - - -
24/11:00pm 15.5 ESE 3 4 1014.5 - 1.8 - - - - - - -
24/10:30pm 16.1 SE 4 5 1014.6 - 1.8 - - - - - - -
24/10:00pm 16.6 WNW 2 3 1014.5 - 1.8 - - - - - - -
24/09:30pm 16.7 NNW 3 4 1014.4 - 1.8 - - - - - - -
24/09:00pm 16.8 NNW 4 5 1014.3 - 1.8 - - - - - - -
24/08:30pm 17.1 N 3 5 1014.5 - 1.8 - - - - - - -
24/08:00pm 17.3 WNW 4 6 1014.4 - 1.8 - - - - - - -
24/07:30pm 17.3 N 4 5 1014.2 - 1.8 - - - - - - -
24/07:00pm 17.7 WSW 7 11 1014.7 - 1.8 - - - - - - -
24/06:30pm 18.1 NE 2 4 1014.0 - 1.6 - - - - - - -
24/06:00pm 18.3 SW 3 7 1014.4 - 0.6 Rain - - - - - -
24/05:30pm 18.6 SSW 3 5 1013.8 - 0.0 - - - - - - -
24/05:00pm 19.4 SE 6 7 1012.9 - 0.0 - - - - - - -
24/04:30pm 21.4 ESE 3 5 1013.9 - 0.0 - - - - - - -
24/04:00pm 21.8 ESE 8 10 1012.7 - 0.0 - - - - - - -
24/03:30pm 21.6 E 5 7 1012.7 - 0.0 - - - - - - -
24/03:00pm 20.4 E 5 8 1012.8 - 0.0 - - - - - - -
24/02:30pm 21.4 ESE 6 8 1013.0 - 0.0 - - - - - - -
24/02:00pm 21.1 ESE 7 9 1012.9 - 0.0 - - - - - - -
24/01:30pm 21.2 SE 7 9 1012.9 - 0.0 - - - - - - -
24/01:00pm 22.2 ESE 6 9 1012.9 - 0.0 - - - - - - -
24/12:30pm 22.0 SE 8 11 1013.1 - 0.0 - - - - - - -
24/12:00pm 21.5 ESE 5 9 1013.3 - 0.0 - - - - - - -
24/11:30am 21.1 SE 6 9 1013.2 - 0.0 - - - - - - -
24/11:00am 21.2 SE 6 8 1013.2 - 0.0 - - - - - - -
24/10:30am 21.8 E 5 7 1013.5 - 0.0 - - - - - - -
24/10:00am 20.1 ESE 5 7 1013.3 - 0.0 - - - - - - -
24/09:30am 21.4 ESE 3 4 1013.4 - 0.0 - - - - - - -
24/09:00am 21.7 ESE 4 5 1013.3 - 0.0 - - - - - - -
24/08:30am 18.6 WNW 2 4 1013.2 - 0.0 - - - - - - -
24/08:00am 16.9 W 1 2 1013.1 - 0.0 - - - - - - -
24/07:30am 16.4 W 2 3 1012.9 - 0.0 - - - - - - -
24/07:00am 15.7 W 2 3 1012.7 - 0.0 - - - - - - -
24/06:30am 15.5 W 2 3 1012.6 - 0.0 - - - - - - -
24/06:00am 15.5 CALM 0 0 1012.3 - 0.0 - - - - - - -
24/05:30am 15.5 CALM 0 0 1012.2 - 0.0 - - - - - - -
24/05:00am 15.5 CALM 0 0 1012.1 - 0.0 - - - - - - -
24/04:30am 15.0 CALM 0 0 1011.9 - 0.0 - - - - - - -
24/04:00am 15.2 CALM 0 0 1011.9 - 0.0 - - - - - - -
24/03:30am 15.2 NE 1 2 1012.1 - 0.0 - - - - - - -
24/03:00am 14.9 NE 2 2 1012.1 - 0.0 - - - - - - -
24/02:30am 15.3 NNE 4 5 1012.3 - 0.0 - - - - - - -
24/02:00am 15.9 NNE 4 6 1012.5 - 0.0 - - - - - - -
24/01:30am 16.4 NNE 5 7 1012.7 - 0.0 - - - - - - -
24/01:00am 17.0 NNE 3 5 1013.1 - 0.0 - - - - - - -
24/12:30am 17.0 N 3 6 1013.2 - 0.0 - - - - - - -
24/12:00am 17.4 NNE 5 9 1013.4 - 0.0 - - - - - - -
 
Date/Time
EDT
Temp
°C
Wind Pressure Rain since
9am
mm
Weather Cloud Vis
km
Sea
Height
m
Swell
Dir  Spd
kts
Gust
kts
hPa Trend Height
m
Period
s
Dir
23/11:30pm 17.8 N 5 9 1013.8 - 0.0 - - - - - - -
23/11:00pm 17.7 N 6 12 1013.7 - 0.0 - - - - - - -
23/10:30pm 17.6 NNE 10 16 1013.4 - 0.0 - - - - - - -
23/10:00pm 17.4 NNE 12 18 1013.2 - 0.0 - - - - - - -
23/09:30pm 17.5 NNE 14 24 1012.9 - 0.0 - - - - - - -
23/09:00pm 17.5 NNE 13 22 1012.6 - 0.0 - - - - - - -
23/08:30pm 17.5 NNE 12 17 1012.4 - 0.0 - - - - - - -
23/08:02pm 17.7 NNE 15 26 1012.1 - 0.0 - - - - - - -
23/08:00pm 17.8 NNE 16 26 1012.1 - 0.0 - - - - - - -
23/07:43pm 18.0 NNE 15 27 1012.0 - 0.0 - - - - - - -
23/07:30pm 18.2 NNE 15 25 1011.9 - 0.0 - - - - - - -
23/07:00pm 18.3 NNE 16 25 1011.8 - 0.0 - - - - - - -
23/06:51pm 18.4 NNE 15 25 1011.8 - 0.0 - - - - - - -
23/06:30pm 18.3 NNE 15 22 1011.6 - 0.0 - - - - - - -
23/06:00pm 19.5 NNE 15 24 1011.4 - 0.0 - - - - - - -
23/05:47pm 20.0 NNE 16 26 1011.4 - 0.0 - - - - - - -
23/05:30pm 20.9 NNE 16 23 1011.6 - 0.0 - - - - - - -
23/05:00pm 20.8 NNE 18 26 1011.5 - 0.0 - - - - - - -
23/04:30pm 21.1 NNE 17 26 1011.8 - 0.0 - - - - - - -
23/04:00pm 20.9 NNE 18 27 1012.3 - 0.0 - - - - - - -
23/03:30pm 22.0 NNE 17 29 1012.6 - 0.0 - - - - - - -
23/03:25pm 21.8 NNE 18 29 1012.6 - 0.0 - - - - - - -
23/03:00pm 22.0 NNE 17 26 1012.8 - 0.0 - - - - - - -
23/02:30pm 22.8 NNE 16 23 1013.2 - 0.0 - - - - - - -
23/02:14pm 22.8 NNE 15 27 1013.5 - 0.0 - - - - - - -
23/02:00pm 23.1 NNE 14 23 1013.6 - 0.0 - - - - - - -
23/01:47pm 22.9 NNE 15 25 1013.8 - 0.0 - - - - - - -
23/01:30pm 22.8 NNE 14 21 1014.0 - 0.0 - - - - - - -
23/01:04pm 23.0 NNE 15 26 1014.1 - 0.0 - - - - - - -
23/01:00pm 23.0 NNE 14 24 1014.1 - 0.0 - - - - - - -
23/12:32pm 22.8 NNE 18 28 1014.3 - 0.0 - - - - - - -
23/12:30pm 23.0 NNE 18 28 1014.2 - 0.0 - - - - - - -
23/12:20pm 22.4 NNE 18 28 1014.3 - 0.0 - - - - - - -
23/12:00pm 22.5 NNE 17 24 1014.5 - 0.0 - - - - - - -
23/11:43am 22.5 NNE 15 27 1014.6 - 0.0 - - - - - - -
23/11:30am 21.8 NNE 16 25 1014.7 - 0.0 - - - - - - -
23/11:00am 22.0 NNE 15 25 1015.0 - 0.0 - - - - - - -
23/10:30am 21.7 NNE 13 21 1015.2 - 0.0 - - - - - - -
23/10:00am 22.3 NNE 13 19 1015.3 - 0.0 - - - - - - -
23/09:30am 20.9 NNE 13 20 1015.5 - 0.0 - - - - - - -
23/09:00am 20.6 NNE 14 22 1015.7 - 0.0 - - - - - - -
23/08:30am 19.8 NNE 13 20 1015.9 - 0.0 - - - - - - -
23/08:00am 19.2 NNE 10 17 1015.9 - 0.0 - - - - - - -
23/07:30am 18.6 NNE 9 14 1015.9 - 0.0 - - - - - - -
23/07:00am 17.7 NNE 7 14 1016.0 - 0.0 - - - - - - -
23/06:30am 16.3 N 6 10 1016.1 - 0.0 - - - - - - -
23/06:00am 15.7 N 5 8 1016.2 - 0.0 - - - - - - -
23/05:30am 15.6 N 6 9 1016.1 - 0.0 - - - - - - -
23/05:00am 15.3 N 5 8 1016.2 - 0.0 - - - - - - -
23/04:30am 15.3 N 6 8 1016.3 - 0.0 - - - - - - -
23/04:00am 15.3 N 5 10 1016.5 - 0.0 - - - - - - -
23/03:30am 15.5 N 5 8 1016.7 - 0.0 - - - - - - -
23/03:00am 15.7 N 5 8 1016.9 - 0.0 - - - - - - -
23/02:30am 15.6 N 6 12 1017.1 - 0.0 - - - - - - -
23/02:00am 15.3 N 5 9 1017.4 - 0.0 - - - - - - -
23/01:30am 15.4 NNE 4 5 1017.7 - 0.0 - - - - - - -
23/01:00am 15.7 NNE 6 10 1017.8 - 0.0 - - - - - - -
23/12:30am 15.9 NNE 9 14 1017.8 - 0.0 - - - - - - -
23/12:00am 15.9 NNE 10 17 1017.7 - 0.0 - - - - - - -
 
Date/Time
EDT
Temp
°C
Wind Pressure Rain since
9am
mm
Weather Cloud Vis
km
Sea
Height
m
Swell
Dir  Spd
kts
Gust
kts
hPa Trend Height
m
Period
s
Dir
22/11:30pm 15.8 NNE 9 14 1017.9 - 0.0 - - - - - - -
22/11:00pm 15.7 NNE 5 9 1018.1 - 0.0 - - - - - - -
22/10:30pm 16.3 N 8 14 1018.1 - 0.0 - - - - - - -
22/10:00pm 16.4 NNE 13 23 1017.7 - 0.0 - - - - - - -
22/09:30pm 16.4 NNE 15 23 1017.5 - 0.0 - - - - - - -
22/09:00pm 16.5 NNE 18 26 1017.1 - 0.0 - - - - - - -
22/08:30pm 16.5 NNE 18 26 1017.0 - 0.0 - - - - - - -
22/08:22pm 16.6 NNE 16 26 1017.0 - 0.0 - - - - - - -
22/08:00pm 16.7 NNE 16 26 1017.0 - 0.0 - - - - - - -
22/07:31pm 17.1 NNE 18 28 1016.9 - 0.0 - - - - - - -
22/07:30pm 17.1 NNE 18 28 1017.0 - 0.0 - - - - - - -
22/07:00pm 18.0 NNE 19 33 1016.8 - 0.0 - - - - - - -
22/06:30pm 18.8 NNE 18 29 1016.7 - 0.0 - - - - - - -
22/06:29pm 18.8 NNE 18 29 1016.7 - 0.0 - - - - - - -
22/06:00pm 19.7 NNE 16 25 1016.8 - 0.0 - - - - - - -
22/05:31pm 19.9 NNE 19 29 1016.9 - 0.0 - - - - - - -
22/05:30pm 19.9 NNE 19 27 1016.9 - 0.0 - - - - - - -
22/05:00pm 20.3 NNE 20 29 1017.0 - 0.0 - - - - - - -
22/04:30pm 21.0 NNE 18 28 1017.2 - 0.0 - - - - - - -
22/04:00pm 21.4 NNE 19 28 1017.4 - 0.0 - - - - - - -
22/03:36pm 21.1 NNE 20 30 1017.6 - 0.0 - - - - - - -
22/03:30pm 21.4 NNE 20 29 1017.6 - 0.0 - - - - - - -
22/03:02pm 22.6 NNE 18 28 1017.9 - 0.0 - - - - - - -
22/03:00pm 22.9 NNE 19 28 1017.9 - 0.0 - - - - - - -
22/02:57pm 22.3 NNE 19 29 1018.0 - 0.0 - - - - - - -
22/02:30pm 21.9 NNE 20 30 1018.2 - 0.0 - - - - - - -
22/02:00pm 22.5 NNE 20 28 1018.6 - 0.0 - - - - - - -
22/01:43pm 22.0 NNE 20 31 1018.8 - 0.0 - - - - - - -
22/01:30pm 22.1 NNE 20 29 1018.8 - 0.0 - - - - - - -
22/01:00pm 22.5 NNE 21 29 1019.1 - 0.0 - - - - - - -
22/12:37pm 22.7 NNE 18 29 1019.4 - 0.0 - - - - - - -
22/12:30pm 21.8 NNE 19 27 1019.4 - 0.0 - - - - - - -
22/12:12pm 22.3 NNE 17 27 1019.5 - 0.0 - - - - - - -
22/12:00pm 22.3 NNE 17 26 1019.7 - 0.0 - - - - - - -
22/11:30am 22.2 NNE 18 25 1019.8 - 0.0 - - - - - - -
22/11:00am 22.8 NNE 15 23 1020.1 - 0.0 - - - - - - -
22/10:30am 22.1 NNE 15 22 1020.2 - 0.0 - - - - - - -
22/10:00am 21.6 NNE 13 21 1020.3 - 0.0 - - - - - - -
22/09:30am 20.7 NNE 12 19 1020.6 - 0.0 - - - - - - -

Other Formats:

Comma delimited format used in spreadsheet applications
http://www.bom.gov.au/fwo/IDT60701/IDT60701.94987.axf

JavaScript Object Notation format (JSON) in row-major order
http://www.bom.gov.au/fwo/IDT60701/IDT60701.94987.json